Time;durP1;ratioP1;P1;durP2;ratioP2;P2;SDS_P1;SDS_P2;PMS_P1;PMS_P2;Temp;Humidity;BMP_temperature;BMP_pressure;BME280_temperature;BME280_humidity;BME280_pressure;Samples;Min_cycle;Max_cycle;Signal;HPM_P1;HPM_P2
2023/07/10 00:00:24;;;;;;;;;;;19.00;99.90;;;;;;4990924;28;20412;-87
2023/07/10 00:02:51;;;;;;;;;;;19.00;99.90;;;;;;4994703;28;19930;-87
2023/07/10 00:05:27;;;;;;;;;;;19.10;99.90;;;;;;4997210;28;19926;-87
2023/07/10 00:07:52;;;;;;;;;;;19.00;99.90;;;;;;5001308;28;19925;-87
2023/07/10 00:10:18;;;;;;;;;;;19.00;99.90;;;;;;4986556;28;19933;-87
2023/07/10 00:13:01;;;;;;;;;;;18.90;99.90;;;;;;4990051;28;20420;-86
2023/07/10 00:15:30;;;;;;;;;;;18.80;99.90;;;;;;4996923;28;19956;-87
2023/07/10 00:17:56;;;;;;;;;;;18.80;99.90;;;;;;4995715;28;20404;-86
2023/07/10 00:20:26;;;;;;;;;;;18.80;99.90;;;;;;5011250;28;19925;-87
2023/07/10 00:22:51;;;;;;;;;;;18.90;99.90;;;;;;4990960;28;19972;-86
2023/07/10 00:25:18;;;;;;;;;;;18.90;99.90;;;;;;4996712;28;19926;-87
2023/07/10 00:27:44;;;;;;;;;;;18.90;99.90;;;;;;4996086;28;20365;-86
2023/07/10 00:30:15;;;;;;;;;;;19.00;99.90;;;;;;4993711;28;19933;-87
2023/07/10 00:32:42;;;;;;;;;;;19.00;99.90;;;;;;4991369;28;19929;-86
2023/07/10 00:35:07;;;;;;;;;;;19.00;99.90;;;;;;4996318;28;19926;-86
2023/07/10 00:37:33;;;;;;;;;;;19.00;99.90;;;;;;4980306;28;19944;-86
2023/07/10 00:40:01;;;;;;;;;;;19.00;99.90;;;;;;4977552;28;19926;-87
2023/07/10 00:42:27;;;;;;;;;;;19.00;99.90;;;;;;4989095;28;19948;-86
2023/07/10 00:45:00;;;;;;;;;;;19.00;99.90;;;;;;4991933;28;20358;-86
2023/07/10 00:47:30;;;;;;;;;;;19.00;99.90;;;;;;4989320;28;19926;-88
2023/07/10 00:50:10;;;;;;;;;;;19.00;99.90;;;;;;4996755;28;19925;-86
2023/07/10 00:52:49;;;;;;;;;;;19.00;99.90;;;;;;5000901;28;20370;-86
2023/07/10 00:55:22;;;;;;;;;;;18.90;99.90;;;;;;5030799;28;20011;-86
2023/07/10 00:57:56;;;;;;;;;;;18.90;99.90;;;;;;5033156;28;19965;-86
2023/07/10 01:00:23;;;;;;;;;;;18.90;99.90;;;;;;5016962;28;19984;-87
2023/07/10 01:02:51;;;;;;;;;;;18.80;99.90;;;;;;4993002;28;19925;-86
2023/07/10 01:05:27;;;;;;;;;;;19.00;99.90;;;;;;4981237;28;19932;-87
2023/07/10 01:07:57;;;;;;;;;;;19.00;99.90;;;;;;4989887;28;19925;-87
2023/07/10 01:10:23;;;;;;;;;;;19.00;99.90;;;;;;4994202;28;19930;-86
2023/07/10 01:12:49;;;;;;;;;;;19.00;99.90;;;;;;4978457;28;19988;-86
2023/07/10 01:15:18;;;;;;;;;;;18.90;99.90;;;;;;5003331;28;19925;-86
2023/07/10 01:17:46;;;;;;;;;;;18.90;99.90;;;;;;4992028;28;19925;-86
2023/07/10 01:20:19;;;;;;;;;;;18.90;99.90;;;;;;5010742;28;19926;-87
2023/07/10 01:22:45;;;;;;;;;;;18.80;99.90;;;;;;4983947;28;19926;-86
2023/07/10 01:25:11;;;;;;;;;;;18.80;99.90;;;;;;4999756;28;20467;-86
2023/07/10 01:27:36;;;;;;;;;;;18.80;99.90;;;;;;5011451;28;20016;-86
2023/07/10 01:30:11;;;;;;;;;;;18.70;99.90;;;;;;4980228;28;19952;-88
2023/07/10 01:32:44;;;;;;;;;;;18.70;99.90;;;;;;4990822;28;19967;-88
2023/07/10 01:35:13;;;;;;;;;;;18.70;99.90;;;;;;4989011;28;20031;-87
2023/07/10 01:37:38;;;;;;;;;;;18.60;99.90;;;;;;4988937;28;19926;-87
2023/07/10 01:40:11;;;;;;;;;;;18.60;99.90;;;;;;5009110;28;19971;-87
2023/07/10 01:42:37;;;;;;;;;;;18.50;99.90;;;;;;4996695;28;19929;-87
2023/07/10 01:45:13;;;;;;;;;;;18.40;99.90;;;;;;5008400;28;19926;-86
2023/07/10 01:47:42;;;;;;;;;;;18.30;99.90;;;;;;4980614;28;19926;-86
2023/07/10 01:50:08;;;;;;;;;;;18.40;99.90;;;;;;4986605;28;19961;-87
2023/07/10 01:52:33;;;;;;;;;;;18.30;99.90;;;;;;4988104;28;19926;-86
2023/07/10 01:54:59;;;;;;;;;;;18.20;99.90;;;;;;4984761;28;19925;-89
2023/07/10 01:57:25;;;;;;;;;;;18.10;99.90;;;;;;4978711;28;19925;-86
2023/07/10 01:59:54;;;;;;;;;;;18.00;99.90;;;;;;4995640;28;20275;-86
2023/07/10 02:02:22;;;;;;;;;;;18.00;99.90;;;;;;4989023;28;19926;-86
2023/07/10 02:04:50;;;;;;;;;;;18.00;99.90;;;;;;4993322;28;20358;-86
2023/07/10 02:07:15;;;;;;;;;;;18.00;99.90;;;;;;4998579;28;19926;-86
2023/07/10 02:09:43;;;;;;;;;;;17.90;99.90;;;;;;5011315;28;20005;-86
2023/07/10 02:12:11;;;;;;;;;;;18.00;99.90;;;;;;5014601;28;20012;-86
2023/07/10 02:14:37;;;;;;;;;;;17.90;99.90;;;;;;4980583;28;19932;-86
2023/07/10 02:17:03;;;;;;;;;;;17.90;99.90;;;;;;4991323;28;19930;-87
2023/07/10 02:19:36;;;;;;;;;;;17.90;99.90;;;;;;4995094;28;19933;-86
2023/07/10 02:22:02;;;;;;;;;;;17.90;99.90;;;;;;4992873;28;19997;-88
2023/07/10 02:24:27;;;;;;;;;;;17.90;99.90;;;;;;5003082;28;19926;-86
2023/07/10 02:26:55;;;;;;;;;;;17.80;99.90;;;;;;5011942;28;19929;-86
2023/07/10 02:29:24;;;;;;;;;;;17.80;99.90;;;;;;4988066;28;19926;-86
2023/07/10 02:31:50;;;;;;;;;;;17.70;99.90;;;;;;5011230;28;19956;-86
2023/07/10 02:34:25;;;;;;;;;;;17.70;99.90;;;;;;4994670;28;20370;-87
2023/07/10 02:36:51;;;;;;;;;;;17.70;99.90;;;;;;5007514;28;19929;-86
2023/07/10 02:39:17;;;;;;;;;;;17.70;99.90;;;;;;4995040;28;19925;-86
2023/07/10 02:41:42;;;;;;;;;;;17.70;99.90;;;;;;4997194;28;19926;-86
2023/07/10 02:44:13;;;;;;;;;;;17.70;99.90;;;;;;4988726;28;20342;-87
2023/07/10 02:46:41;;;;;;;;;;;17.70;99.90;;;;;;4980487;28;19932;-87
2023/07/10 02:49:07;;;;;;;;;;;17.70;99.90;;;;;;4981660;28;19925;-86
2023/07/10 02:51:33;;;;;;;;;;;17.70;99.90;;;;;;5002704;28;19926;-86
2023/07/10 02:53:58;;;;;;;;;;;17.70;99.90;;;;;;4989425;28;19926;-87
2023/07/10 02:56:27;;;;;;;;;;;17.70;99.90;;;;;;4992242;28;20373;-86
2023/07/10 02:58:52;;;;;;;;;;;17.70;99.90;;;;;;4990356;28;19926;-87
2023/07/10 03:01:25;;;;;;;;;;;17.70;99.90;;;;;;5005342;28;19930;-86
2023/07/10 03:03:51;;;;;;;;;;;17.70;99.90;;;;;;4993807;28;19979;-86
2023/07/10 03:06:27;;;;;;;;;;;17.70;99.90;;;;;;4995235;28;19925;-86
2023/07/10 03:08:53;;;;;;;;;;;17.70;99.90;;;;;;4995091;28;20021;-86
2023/07/10 03:11:23;;;;;;;;;;;17.70;99.90;;;;;;4997167;28;20015;-86
2023/07/10 03:13:52;;;;;;;;;;;17.60;99.90;;;;;;4998224;28;19925;-87
2023/07/10 03:16:31;;;;;;;;;;;17.70;99.90;;;;;;4985972;28;19925;-86
2023/07/10 03:18:59;;;;;;;;;;;17.60;99.90;;;;;;4973434;28;20376;-87
2023/07/10 03:21:30;;;;;;;;;;;17.70;99.90;;;;;;4998150;28;20374;-86
2023/07/10 03:23:57;;;;;;;;;;;17.70;99.90;;;;;;5011359;28;20010;-87
2023/07/10 03:26:23;;;;;;;;;;;17.80;99.90;;;;;;5000036;28;20004;-86
2023/07/10 03:29:01;;;;;;;;;;;17.80;99.90;;;;;;4996974;28;19929;-86
2023/07/10 03:31:26;;;;;;;;;;;17.80;99.90;;;;;;4990300;28;19930;-88
2023/07/10 03:33:52;;;;;;;;;;;17.30;99.90;;;;;;4988917;28;19925;-87
2023/07/10 03:36:18;;;;;;;;;;;17.80;99.90;;;;;;5004831;28;19932;-87
2023/07/10 03:38:46;;;;;;;;;;;17.80;99.90;;;;;;4996779;28;19975;-86
2023/07/10 03:41:11;;;;;;;;;;;17.70;99.90;;;;;;4976618;28;19926;-86
2023/07/10 03:43:39;;;;;;;;;;;17.60;99.90;;;;;;4997346;28;19926;-86
2023/07/10 03:46:05;;;;;;;;;;;17.60;99.90;;;;;;4997144;28;19926;-86
2023/07/10 03:48:33;;;;;;;;;;;17.60;99.90;;;;;;4988288;28;19936;-85
2023/07/10 03:51:01;;;;;;;;;;;17.60;99.90;;;;;;5011541;28;20410;-86
2023/07/10 03:53:28;;;;;;;;;;;17.60;99.90;;;;;;4987931;28;20343;-87
2023/07/10 03:55:55;;;;;;;;;;;17.50;99.90;;;;;;5012835;28;20320;-86
2023/07/10 03:58:27;;;;;;;;;;;17.60;99.90;;;;;;5012122;28;19929;-89
2023/07/10 04:00:55;;;;;;;;;;;17.60;99.90;;;;;;4992492;28;19926;-86
2023/07/10 04:03:22;;;;;;;;;;;17.60;99.90;;;;;;4989430;28;19937;-87
2023/07/10 04:05:52;;;;;;;;;;;17.60;99.90;;;;;;4995673;28;20263;-88
2023/07/10 04:08:27;;;;;;;;;;;17.60;99.90;;;;;;5013348;28;19940;-87
2023/07/10 04:10:59;;;;;;;;;;;17.60;99.90;;;;;;5032645;28;19914;-89
2023/07/10 04:13:25;;;;;;;;;;;17.60;99.90;;;;;;5018615;28;19925;-87
2023/07/10 04:15:55;;;;;;;;;;;17.60;99.90;;;;;;5010962;28;19953;-86
2023/07/10 04:18:21;;;;;;;;;;;17.60;99.90;;;;;;4994400;28;19961;-86
2023/07/10 04:20:46;;;;;;;;;;;17.50;99.90;;;;;;4998841;28;19926;-86
2023/07/10 04:23:22;;;;;;;;;;;17.50;99.90;;;;;;4994900;28;20016;-88
2023/07/10 04:25:48;;;;;;;;;;;17.50;99.90;;;;;;4989751;28;19971;-86
2023/07/10 04:28:14;;;;;;;;;;;17.50;99.90;;;;;;4998540;28;19930;-86
2023/07/10 04:30:39;;;;;;;;;;;17.50;99.90;;;;;;4996802;28;19925;-86
2023/07/10 04:33:08;;;;;;;;;;;17.50;99.90;;;;;;4990083;28;20064;-86
2023/07/10 04:35:34;;;;;;;;;;;17.50;99.90;;;;;;4993599;28;20020;-86
2023/07/10 04:38:00;;;;;;;;;;;17.50;99.90;;;;;;4988461;28;19925;-86
2023/07/10 04:40:25;;;;;;;;;;;17.60;99.90;;;;;;4976575;28;19926;-89
2023/07/10 04:42:51;;;;;;;;;;;17.60;99.90;;;;;;4994148;28;20377;-86
2023/07/10 04:45:17;;;;;;;;;;;17.60;99.90;;;;;;5010771;28;19925;-87
2023/07/10 04:47:43;;;;;;;;;;;17.60;99.90;;;;;;4996562;28;20347;-86
2023/07/10 04:50:09;;;;;;;;;;;17.70;99.90;;;;;;5012951;28;20020;-86
2023/07/10 04:52:35;;;;;;;;;;;17.70;99.90;;;;;;5004635;28;19976;-86
2023/07/10 04:55:03;;;;;;;;;;;17.80;99.90;;;;;;5006506;28;19939;-88
2023/07/10 04:57:29;;;;;;;;;;;17.90;99.90;;;;;;4980228;28;20310;-86
2023/07/10 04:59:56;;;;;;;;;;;17.90;99.90;;;;;;4990727;28;19953;-86
2023/07/10 05:02:22;;;;;;;;;;;17.90;99.90;;;;;;4993531;28;19925;-86
2023/07/10 05:04:48;;;;;;;;;;;17.90;99.90;;;;;;5011440;28;20012;-86
2023/07/10 05:07:13;;;;;;;;;;;17.90;99.90;;;;;;4992249;28;19930;-86
2023/07/10 05:09:39;;;;;;;;;;;18.10;99.90;;;;;;5012389;28;20416;-86
2023/07/10 05:12:08;;;;;;;;;;;17.90;99.90;;;;;;4993271;28;19940;-86
2023/07/10 05:14:36;;;;;;;;;;;17.90;99.90;;;;;;5012689;28;20059;-86
2023/07/10 05:17:02;;;;;;;;;;;18.00;99.90;;;;;;4979624;28;20291;-86
2023/07/10 05:19:32;;;;;;;;;;;18.00;99.90;;;;;;4996017;28;19932;-86
2023/07/10 05:22:01;;;;;;;;;;;18.00;99.90;;;;;;4991236;28;20396;-88
2023/07/10 05:24:41;;;;;;;;;;;18.00;99.90;;;;;;5009995;28;19929;-89
2023/07/10 05:27:07;;;;;;;;;;;18.00;99.90;;;;;;4996752;28;19929;-89
2023/07/10 05:29:33;;;;;;;;;;;18.00;99.90;;;;;;5012915;28;19933;-88
2023/07/10 05:32:06;;;;;;;;;;;17.70;99.90;;;;;;5012515;28;19925;-89
2023/07/10 05:34:34;;;;;;;;;;;18.10;99.90;;;;;;5005540;28;20020;-90
2023/07/10 05:37:03;;;;;;;;;;;18.10;99.90;;;;;;4987936;28;19933;-89
2023/07/10 05:39:29;;;;;;;;;;;18.20;99.90;;;;;;4977143;28;19926;-89
2023/07/10 05:41:55;;;;;;;;;;;18.50;99.90;;;;;;4990881;28;20376;-89
2023/07/10 05:44:21;;;;;;;;;;;18.40;99.90;;;;;;4996354;28;19972;-89
2023/07/10 05:46:51;;;;;;;;;;;18.40;99.90;;;;;;4996412;28;19975;-89
2023/07/10 05:49:18;;;;;;;;;;;18.30;99.90;;;;;;5013193;28;19925;-87
2023/07/10 05:51:43;;;;;;;;;;;18.60;99.90;;;;;;4993647;28;20385;-86
2023/07/10 05:54:10;;;;;;;;;;;18.70;99.90;;;;;;5016135;28;19933;-87
2023/07/10 05:56:39;;;;;;;;;;;18.60;99.90;;;;;;4997167;28;20365;-86
2023/07/10 05:59:04;;;;;;;;;;;18.70;99.90;;;;;;4994476;28;19933;-88
2023/07/10 06:01:30;;;;;;;;;;;18.70;99.90;;;;;;4975830;28;19931;-88
2023/07/10 06:03:56;;;;;;;;;;;18.70;99.90;;;;;;4981812;28;19926;-88
2023/07/10 06:06:21;;;;;;;;;;;18.70;99.90;;;;;;5012660;28;19929;-89
2023/07/10 06:08:52;;;;;;;;;;;18.70;99.90;;;;;;4982469;28;20428;-87
2023/07/10 06:11:18;;;;;;;;;;;18.70;99.90;;;;;;4996542;28;19980;-88
2023/07/10 06:13:46;;;;;;;;;;;18.70;99.90;;;;;;4980761;28;19952;-88
2023/07/10 06:16:14;;;;;;;;;;;18.70;99.90;;;;;;4999354;28;19929;-89
2023/07/10 06:18:42;;;;;;;;;;;18.60;99.90;;;;;;4980211;28;19933;-88
2023/07/10 06:21:09;;;;;;;;;;;18.50;99.90;;;;;;4974410;28;19933;-88
2023/07/10 06:23:35;;;;;;;;;;;18.70;99.90;;;;;;4992381;28;19929;-87
2023/07/10 06:26:01;;;;;;;;;;;18.70;99.90;;;;;;4982289;28;20353;-89
2023/07/10 06:28:28;;;;;;;;;;;18.60;99.90;;;;;;4991857;28;19926;-88
2023/07/10 06:30:56;;;;;;;;;;;18.70;99.90;;;;;;5007160;28;19926;-89
2023/07/10 06:33:22;;;;;;;;;;;18.70;99.90;;;;;;4993530;28;19968;-89
2023/07/10 06:35:56;;;;;;;;;;;18.60;99.90;;;;;;4975515;28;19961;-87
2023/07/10 06:38:22;;;;;;;;;;;18.60;99.90;;;;;;4999564;28;19934;-88
2023/07/10 06:40:54;;;;;;;;;;;18.60;99.90;;;;;;5002156;28;19934;-87
2023/07/10 06:43:20;;;;;;;;;;;18.60;99.90;;;;;;5011003;28;20265;-88
2023/07/10 06:45:46;;;;;;;;;;;18.60;99.90;;;;;;4987876;28;19944;-87
2023/07/10 06:48:14;;;;;;;;;;;18.60;99.90;;;;;;4997579;28;20323;-87
2023/07/10 06:50:40;;;;;;;;;;;18.60;99.90;;;;;;4991584;28;20031;-88
2023/07/10 06:53:08;;;;;;;;;;;18.70;99.90;;;;;;5000812;28;20112;-86
2023/07/10 06:55:36;;;;;;;;;;;18.70;99.90;;;;;;5013043;28;19932;-86
2023/07/10 06:58:02;;;;;;;;;;;18.80;99.90;;;;;;4990726;28;19932;-87
2023/07/10 07:00:28;;;;;;;;;;;18.60;99.90;;;;;;5002253;28;20447;-89
2023/07/10 07:02:53;;;;;;;;;;;18.70;99.90;;;;;;5001881;28;20076;-86
2023/07/10 07:05:19;;;;;;;;;;;18.80;99.90;;;;;;4990052;28;19982;-88
2023/07/10 07:07:45;;;;;;;;;;;18.70;99.90;;;;;;5002955;28;19926;-88
2023/07/10 07:10:17;;;;;;;;;;;18.80;99.90;;;;;;4984872;28;19952;-87
2023/07/10 07:12:50;;;;;;;;;;;18.80;99.90;;;;;;4979886;28;20431;-88
2023/07/10 07:15:20;;;;;;;;;;;18.80;99.90;;;;;;5006511;28;20393;-88
2023/07/10 07:17:46;;;;;;;;;;;18.80;99.90;;;;;;5009768;28;20279;-89
2023/07/10 07:20:12;;;;;;;;;;;18.80;99.90;;;;;;4987782;28;19932;-87
2023/07/10 07:22:37;;;;;;;;;;;18.90;99.90;;;;;;4998455;28;19979;-87
2023/07/10 07:25:03;;;;;;;;;;;18.90;99.90;;;;;;5012470;28;19914;-93
2023/07/10 07:27:31;;;;;;;;;;;18.90;99.90;;;;;;5049769;28;19941;-91
2023/07/10 07:29:57;;;;;;;;;;;19.00;99.90;;;;;;5015041;28;19958;-88
2023/07/10 07:32:23;;;;;;;;;;;19.00;99.90;;;;;;4986084;28;20048;-87
2023/07/10 07:34:49;;;;;;;;;;;19.10;99.90;;;;;;4986942;28;19932;-88
2023/07/10 07:37:17;;;;;;;;;;;19.20;99.90;;;;;;5005142;28;19925;-89
2023/07/10 07:39:42;;;;;;;;;;;19.30;99.90;;;;;;5006808;28;20469;-87
2023/07/10 07:42:08;;;;;;;;;;;19.30;99.90;;;;;;4983110;28;19925;-87
2023/07/10 07:44:34;;;;;;;;;;;19.30;99.90;;;;;;4994876;28;19925;-87
2023/07/10 07:47:03;;;;;;;;;;;19.40;99.90;;;;;;4997386;28;19930;-87
2023/07/10 07:49:28;;;;;;;;;;;19.50;99.90;;;;;;4988784;28;19938;-88
2023/07/10 07:51:54;;;;;;;;;;;19.60;99.90;;;;;;4999210;28;20008;-86
2023/07/10 07:54:20;;;;;;;;;;;19.70;99.90;;;;;;4981924;28;20025;-87
2023/07/10 07:56:53;;;;;;;;;;;19.80;99.90;;;;;;4991382;28;19971;-87
2023/07/10 07:59:19;;;;;;;;;;;19.80;99.90;;;;;;4979043;28;19980;-86
2023/07/10 08:01:45;;;;;;;;;;;20.00;99.90;;;;;;4983212;28;19937;-87
2023/07/10 08:04:11;;;;;;;;;;;20.00;99.90;;;;;;4980557;28;19941;-88
2023/07/10 08:06:39;;;;;;;;;;;20.00;99.90;;;;;;4981292;28;19926;-87
2023/07/10 08:09:07;;;;;;;;;;;20.00;99.90;;;;;;5004152;28;19930;-88
2023/07/10 08:11:33;;;;;;;;;;;20.00;99.90;;;;;;4984595;28;19973;-87
2023/07/10 08:14:02;;;;;;;;;;;20.10;99.90;;;;;;4991300;28;20353;-89
2023/07/10 08:16:30;;;;;;;;;;;20.10;99.90;;;;;;4968816;28;19926;-88
2023/07/10 08:18:58;;;;;;;;;;;20.20;99.90;;;;;;5005299;28;19925;-88
2023/07/10 08:21:24;;;;;;;;;;;20.60;99.90;;;;;;4989559;28;20481;-87
2023/07/10 08:23:50;;;;;;;;;;;20.50;99.90;;;;;;4986669;28;20375;-88
2023/07/10 08:26:16;;;;;;;;;;;20.60;99.90;;;;;;4984608;28;19925;-89
2023/07/10 08:28:44;;;;;;;;;;;20.70;99.90;;;;;;4984122;28;19934;-88
2023/07/10 08:31:09;;;;;;;;;;;20.60;99.90;;;;;;4972683;28;20057;-87
2023/07/10 08:33:35;;;;;;;;;;;20.60;99.90;;;;;;5001314;28;20029;-89
2023/07/10 08:36:08;;;;;;;;;;;20.60;99.90;;;;;;4990883;28;19929;-87
2023/07/10 08:38:42;;;;;;;;;;;20.70;99.90;;;;;;4980340;28;20001;-87
2023/07/10 08:41:16;;;;;;;;;;;20.70;99.90;;;;;;5002957;28;20275;-88
2023/07/10 08:43:43;;;;;;;;;;;20.70;99.90;;;;;;4981820;28;19933;-88
2023/07/10 08:46:15;;;;;;;;;;;20.60;99.90;;;;;;4974383;28;19926;-86
2023/07/10 08:48:50;;;;;;;;;;;20.60;99.90;;;;;;5004868;28;19929;-88
2023/07/10 08:51:36;;;;;;;;;;;20.80;99.90;;;;;;4990169;28;19926;-90
2023/07/10 08:54:11;;;;;;;;;;;21.00;99.90;;;;;;5001593;28;19930;-87
2023/07/10 08:56:45;;;;;;;;;;;21.20;99.90;;;;;;4984056;28;19949;-87
2023/07/10 08:59:16;;;;;;;;;;;21.40;99.90;;;;;;4984326;28;20126;-86
2023/07/10 09:01:44;;;;;;;;;;;21.20;99.90;;;;;;4990336;28;19929;-86
2023/07/10 09:04:13;;;;;;;;;;;21.50;99.90;;;;;;4988534;28;19948;-87
2023/07/10 09:06:46;;;;;;;;;;;21.60;99.90;;;;;;4978778;28;19984;-86
2023/07/10 09:09:31;;;;;;;;;;;21.70;99.90;;;;;;4983831;28;19976;-86
2023/07/10 09:12:02;;;;;;;;;;;21.70;99.90;;;;;;4986895;28;19976;-86
2023/07/10 09:14:35;;;;;;;;;;;21.80;99.90;;;;;;4984465;28;19925;-85
2023/07/10 09:17:02;;;;;;;;;;;21.80;99.90;;;;;;5000935;28;19957;-86
2023/07/10 09:19:28;;;;;;;;;;;21.90;99.90;;;;;;5001307;28;19926;-87
2023/07/10 09:21:53;;;;;;;;;;;21.90;99.90;;;;;;4991705;28;19932;-87
2023/07/10 09:24:21;;;;;;;;;;;22.00;99.90;;;;;;4994615;28;19929;-89
2023/07/10 09:26:47;;;;;;;;;;;22.10;99.90;;;;;;4990877;28;19968;-87
2023/07/10 09:29:16;;;;;;;;;;;22.10;99.90;;;;;;4986740;28;19973;-85
2023/07/10 09:31:53;;;;;;;;;;;22.10;99.90;;;;;;5006542;28;19936;-85
2023/07/10 09:34:20;;;;;;;;;;;22.30;99.90;;;;;;4991951;28;19976;-89
2023/07/10 09:36:52;;;;;;;;;;;22.40;99.90;;;;;;4991416;28;20014;-88
2023/07/10 09:39:18;;;;;;;;;;;22.30;99.90;;;;;;5006570;28;20377;-89
2023/07/10 09:41:44;;;;;;;;;;;22.40;99.90;;;;;;4979124;28;19929;-85
2023/07/10 09:44:20;;;;;;;;;;;22.40;99.90;;;;;;4981656;28;19933;-87
2023/07/10 09:46:46;;;;;;;;;;;22.40;99.90;;;;;;4983583;28;19949;-85
2023/07/10 09:49:14;;;;;;;;;;;22.30;99.90;;;;;;4998383;28;19926;-87
2023/07/10 09:52:00;;;;;;;;;;;22.40;99.90;;;;;;4995220;28;19937;-87
2023/07/10 09:54:35;;;;;;;;;;;22.50;99.90;;;;;;4990962;28;19929;-88
2023/07/10 09:57:03;;;;;;;;;;;22.70;99.90;;;;;;4993772;28;20432;-87
2023/07/10 09:59:31;;;;;;;;;;;23.10;99.90;;;;;;5006146;28;19934;-88
2023/07/10 10:02:02;;;;;;;;;;;23.30;99.90;;;;;;4982819;28;19926;-88
2023/07/10 10:04:28;;;;;;;;;;;23.50;99.90;;;;;;4989106;28;19925;-88
2023/07/10 10:07:01;;;;;;;;;;;23.70;99.90;;;;;;4986627;28;20231;-87
2023/07/10 10:09:29;;;;;;;;;;;23.50;99.90;;;;;;5010580;28;20366;-87
2023/07/10 10:12:00;;;;;;;;;;;23.50;99.90;;;;;;4994527;28;19925;-87
2023/07/10 10:14:55;;;;;;;;;;;23.40;99.90;;;;;;4986819;28;20028;-86
2023/07/10 10:17:23;;;;;;;;;;;23.50;99.90;;;;;;4970060;28;19941;-87
2023/07/10 10:19:51;;;;;;;;;;;23.50;99.90;;;;;;4990557;28;19971;-85
2023/07/10 10:22:17;;;;;;;;;;;23.60;99.90;;;;;;4987942;28;19930;-86
2023/07/10 10:24:44;;;;;;;;;;;23.50;99.90;;;;;;5003823;28;19933;-86
2023/07/10 10:27:13;;;;;;;;;;;23.70;99.90;;;;;;4988256;28;19925;-86
2023/07/10 10:29:44;;;;;;;;;;;23.50;99.90;;;;;;4996537;28;19926;-86
2023/07/10 10:32:23;;;;;;;;;;;23.60;99.90;;;;;;5001306;28;19926;-86
2023/07/10 10:34:48;;;;;;;;;;;23.70;99.90;;;;;;5002280;28;19933;-84
2023/07/10 10:37:29;;;;;;;;;;;23.60;99.90;;;;;;5010854;28;19914;-88
2023/07/10 10:40:16;;;;;;;;;;;23.40;99.90;;;;;;5031425;28;19925;-92
2023/07/10 10:42:50;;;;;;;;;;;23.00;99.90;;;;;;4987012;28;20410;-85
2023/07/10 10:45:38;;;;;;;;;;;22.60;99.90;;;;;;5003852;28;19934;-86
2023/07/10 10:48:10;;;;;;;;;;;22.50;99.90;;;;;;5002750;28;19926;-86
2023/07/10 10:50:41;;;;;;;;;;;22.70;99.90;;;;;;4983084;28;19926;-86
2023/07/10 10:53:09;;;;;;;;;;;22.70;99.90;;;;;;4989353;28;20282;-86
2023/07/10 10:55:44;;;;;;;;;;;22.70;99.90;;;;;;4999697;28;19969;-86
2023/07/10 10:58:18;;;;;;;;;;;22.80;99.90;;;;;;5000228;28;19926;-85
2023/07/10 11:01:02;;;;;;;;;;;23.20;99.90;;;;;;4984129;28;19953;-86
2023/07/10 11:03:37;;;;;;;;;;;23.40;99.90;;;;;;5003956;28;20393;-86
2023/07/10 11:06:26;;;;;;;;;;;23.50;99.90;;;;;;4986911;28;19926;-87
2023/07/10 11:08:53;;;;;;;;;;;23.80;99.90;;;;;;4983074;28;20325;-86
2023/07/10 11:11:26;;;;;;;;;;;23.80;99.90;;;;;;4999998;28;20025;-86
2023/07/10 11:13:52;;;;;;;;;;;23.50;99.90;;;;;;4991921;28;19925;-85
2023/07/10 11:16:17;;;;;;;;;;;23.40;99.90;;;;;;5006831;28;20024;-86
2023/07/10 11:18:44;;;;;;;;;;;23.20;99.90;;;;;;4990330;28;19938;-85
2023/07/10 11:21:10;;;;;;;;;;;23.20;99.90;;;;;;4988415;28;20263;-85
2023/07/10 11:23:43;;;;;;;;;;;23.00;99.90;;;;;;4991947;28;19932;-86
2023/07/10 11:26:09;;;;;;;;;;;23.00;99.90;;;;;;4988272;28;20012;-86
2023/07/10 11:28:35;;;;;;;;;;;23.30;99.90;;;;;;5003844;28;20012;-86
2023/07/10 11:31:29;;;;;;;;;;;23.40;99.90;;;;;;5006807;28;19933;-85
2023/07/10 11:34:06;;;;;;;;;;;23.30;99.90;;;;;;4983026;28;20000;-85
2023/07/10 11:36:35;;;;;;;;;;;23.30;99.90;;;;;;5027819;28;20267;-87
2023/07/10 11:39:09;;;;;;;;;;;23.20;99.90;;;;;;4988076;28;19941;-86
2023/07/10 11:41:36;;;;;;;;;;;23.10;99.90;;;;;;5002390;28;20020;-87
2023/07/10 11:44:14;;;;;;;;;;;23.30;99.90;;;;;;5003760;28;19987;-85
2023/07/10 11:47:04;;;;;;;;;;;23.50;99.90;;;;;;4992158;28;19926;-85
2023/07/10 11:49:35;;;;;;;;;;;23.70;99.90;;;;;;5007504;28;19926;-86
2023/07/10 11:52:21;;;;;;;;;;;23.20;99.90;;;;;;4986308;28;20302;-85
2023/07/10 11:54:46;;;;;;;;;;;23.30;99.90;;;;;;5005791;28;20021;-85
2023/07/10 11:57:22;;;;;;;;;;;23.40;99.90;;;;;;4982002;28;20008;-86
2023/07/10 11:59:54;;;;;;;;;;;23.60;99.90;;;;;;4989640;28;19929;-85
2023/07/10 12:02:19;;;;;;;;;;;23.60;99.90;;;;;;5002556;28;20290;-85
2023/07/10 12:04:45;;;;;;;;;;;23.20;99.90;;;;;;5010368;28;19929;-86
2023/07/10 12:07:11;;;;;;;;;;;23.20;99.90;;;;;;5009274;28;19930;-86
2023/07/10 12:09:37;;;;;;;;;;;23.40;99.90;;;;;;5002589;28;19933;-87
2023/07/10 12:12:03;;;;;;;;;;;23.70;99.90;;;;;;4985909;28;19936;-85
2023/07/10 12:14:30;;;;;;;;;;;24.00;99.90;;;;;;4995108;28;20016;-88
2023/07/10 12:16:59;;;;;;;;;;;24.00;99.90;;;;;;4991493;28;20012;-87
2023/07/10 12:19:33;;;;;;;;;;;24.20;99.90;;;;;;4995835;28;20042;-88
2023/07/10 12:22:03;;;;;;;;;;;24.50;99.90;;;;;;4991162;28;19972;-88
2023/07/10 12:24:29;;;;;;;;;;;24.30;99.90;;;;;;4988337;28;19933;-87
2023/07/10 12:26:56;;;;;;;;;;;24.60;99.90;;;;;;4980985;28;20582;-88
2023/07/10 12:29:21;;;;;;;;;;;24.50;99.90;;;;;;4989706;28;19983;-86
2023/07/10 12:31:47;;;;;;;;;;;24.10;99.90;;;;;;5022030;28;20013;-86
2023/07/10 12:34:24;;;;;;;;;;;24.10;99.90;;;;;;5002764;28;20328;-87
2023/07/10 12:36:50;;;;;;;;;;;23.80;99.90;;;;;;4998446;28;20024;-87
2023/07/10 12:39:16;;;;;;;;;;;23.40;99.90;;;;;;5026713;28;20063;-86
2023/07/10 12:41:47;;;;;;;;;;;23.40;99.90;;;;;;5004740;28;20041;-87
2023/07/10 12:44:23;;;;;;;;;;;23.70;99.90;;;;;;4992942;28;19932;-88
2023/07/10 12:46:57;;;;;;;;;;;23.90;99.90;;;;;;4979601;28;19933;-86
2023/07/10 12:49:28;;;;;;;;;;;24.00;99.90;;;;;;5007743;28;19926;-87
2023/07/10 12:51:54;;;;;;;;;;;24.00;99.70;;;;;;4991227;28;19932;-87
2023/07/10 12:54:25;;;;;;;;;;;24.10;99.90;;;;;;5009612;28;19925;-90
2023/07/10 12:56:51;;;;;;;;;;;24.20;99.80;;;;;;4992204;28;19930;-88
2023/07/10 12:59:29;;;;;;;;;;;24.40;99.20;;;;;;5008132;28;20059;-87
2023/07/10 13:02:01;;;;;;;;;;;24.70;99.90;;;;;;4998355;28;20346;-89
2023/07/10 13:04:31;;;;;;;;;;;24.90;99.90;;;;;;4987982;28;19926;-89
2023/07/10 13:07:00;;;;;;;;;;;25.00;99.80;;;;;;5012973;28;20382;-91
2023/07/10 13:09:29;;;;;;;;;;;25.00;99.20;;;;;;4988211;28;19932;-91
2023/07/10 13:11:55;;;;;;;;;;;25.20;99.40;;;;;;4985800;28;19926;-92
2023/07/10 13:14:26;;;;;;;;;;;25.20;99.00;;;;;;4991432;28;20024;-89
2023/07/10 13:16:51;;;;;;;;;;;25.10;98.80;;;;;;4983524;28;19930;-91
2023/07/10 13:19:17;;;;;;;;;;;25.20;98.30;;;;;;4973185;28;20060;-90
2023/07/10 13:21:46;;;;;;;;;;;25.00;98.60;;;;;;4990588;28;19980;-89
2023/07/10 13:24:17;;;;;;;;;;;24.90;98.10;;;;;;4979107;28;19933;-89
2023/07/10 13:26:51;;;;;;;;;;;24.80;98.90;;;;;;4969903;28;19976;-90
2023/07/10 13:32:32;;;;;;;;;;;24.80;99.40;;;;;;5004636;28;19979;-91
2023/07/10 13:35:01;;;;;;;;;;;25.00;98.30;;;;;;4988331;28;19940;-91
2023/07/10 13:37:27;;;;;;;;;;;24.90;95.30;;;;;;4975255;28;19930;-90
2023/07/10 13:40:01;;;;;;;;;;;24.90;94.40;;;;;;4988879;28;19926;-91
2023/07/10 13:42:27;;;;;;;;;;;24.80;94.20;;;;;;4968974;28;20048;-91
2023/07/10 13:44:54;;;;;;;;;;;24.60;93.90;;;;;;4997070;28;20249;-91
2023/07/10 13:47:21;;;;;;;;;;;24.60;94.80;;;;;;5000511;28;19940;-92
2023/07/10 13:49:47;;;;;;;;;;;24.60;93.70;;;;;;5007545;28;19929;-92
2023/07/10 13:52:12;;;;;;;;;;;24.50;94.40;;;;;;4985292;28;19932;-90
2023/07/10 13:54:56;;;;;;;;;;;24.70;94.90;;;;;;4990837;28;19926;-89
2023/07/10 13:57:24;;;;;;;;;;;24.80;91.90;;;;;;5022899;28;19929;-92
2023/07/10 13:59:56;;;;;;;;;;;24.90;92.20;;;;;;5015448;28;19933;-92
2023/07/10 14:02:51;;;;;;;;;;;24.80;92.70;;;;;;4991551;28;19925;-92
2023/07/10 14:05:28;;;;;;;;;;;24.60;91.40;;;;;;4997894;28;19926;-96
2023/07/10 14:07:54;;;;;;;;;;;24.80;93.30;;;;;;4983331;28;20080;-91
2023/07/10 14:10:22;;;;;;;;;;;24.70;94.50;;;;;;5007001;28;20018;-90
2023/07/10 14:12:52;;;;;;;;;;;24.90;93.70;;;;;;5007373;28;19926;-89
2023/07/10 14:15:19;;;;;;;;;;;24.80;92.70;;;;;;5014874;28;19940;-90
2023/07/10 14:17:45;;;;;;;;;;;25.00;90.50;;;;;;4996586;28;19925;-90
2023/07/10 14:20:21;;;;;;;;;;;25.00;91.30;;;;;;4998859;28;19951;-88
2023/07/10 14:22:47;;;;;;;;;;;25.10;89.90;;;;;;4997883;28;19925;-89
2023/07/10 14:25:14;;;;;;;;;;;24.80;88.30;;;;;;5011062;28;20016;-90
2023/07/10 14:27:42;;;;;;;;;;;24.80;91.90;;;;;;4998096;28;20389;-89
2023/07/10 14:30:21;;;;;;;;;;;24.80;90.40;;;;;;4996993;28;20967;-88